createdAt,value
2024-04-15T00:01:39.512Z,24.50
2024-04-15T00:04:34.468Z,24.20
2024-04-15T00:07:29.394Z,24.00
2024-04-15T00:10:24.450Z,23.80
2024-04-15T00:13:19.922Z,23.60
2024-04-15T00:16:14.791Z,23.50
2024-04-15T00:19:09.729Z,23.40
2024-04-15T00:22:04.687Z,23.30
2024-04-15T00:24:59.560Z,23.10
2024-04-15T00:27:54.432Z,22.90
2024-04-15T00:30:51.002Z,22.90
2024-04-15T00:33:49.801Z,22.90
2024-04-15T00:36:47.605Z,22.80
2024-04-15T00:39:43.048Z,22.70
2024-04-15T00:42:38.558Z,22.70
2024-04-15T00:45:36.150Z,22.70
2024-04-15T00:48:31.870Z,22.70
2024-04-15T00:51:29.460Z,22.70
2024-04-15T00:54:24.973Z,22.80
2024-04-15T00:57:20.278Z,22.80
2024-04-15T01:00:19.491Z,22.90
2024-04-15T01:03:15.687Z,22.80
2024-04-15T01:06:11.284Z,22.80
2024-04-15T01:09:06.795Z,22.90
2024-04-15T01:12:02.014Z,22.90
2024-04-15T01:14:57.562Z,23.00
2024-04-15T01:17:52.864Z,23.10
2024-04-15T01:20:48.297Z,23.20
2024-04-15T01:23:52.267Z,23.20
2024-04-15T01:26:51.221Z,23.30
2024-04-15T01:29:46.324Z,23.40
2024-04-15T01:32:41.373Z,23.40
2024-04-15T01:35:36.746Z,23.40
2024-04-15T01:38:32.137Z,23.50
2024-04-15T01:41:27.621Z,23.50
2024-04-15T01:44:22.874Z,23.60
2024-04-15T01:47:18.353Z,23.60
2024-04-15T01:50:14.725Z,23.60
2024-04-15T01:53:13.632Z,23.50
2024-04-15T01:56:08.669Z,23.50
2024-04-15T01:59:03.984Z,23.60
2024-04-15T02:01:58.819Z,23.70
2024-04-15T02:04:53.733Z,23.70
2024-04-15T02:07:48.627Z,23.70
2024-04-15T02:10:43.633Z,23.70
2024-04-15T02:13:38.501Z,23.80
2024-04-15T02:16:33.511Z,23.80
2024-04-15T02:19:29.281Z,23.80
2024-04-15T02:22:24.904Z,23.90
2024-04-15T02:25:21.069Z,23.90
2024-04-15T02:28:16.674Z,24.10
2024-04-15T02:31:12.267Z,24.10
2024-04-15T02:34:07.691Z,24.20
2024-04-15T02:37:03.357Z,24.20
2024-04-15T02:39:58.997Z,24.30
2024-04-15T02:42:54.622Z,24.30
2024-04-15T02:45:50.723Z,24.30
2024-04-15T02:48:46.232Z,24.30
2024-04-15T02:51:42.348Z,24.40
2024-04-15T02:54:37.958Z,24.40
2024-04-15T02:57:33.157Z,24.40
2024-04-15T03:00:28.136Z,24.30
2024-04-15T03:03:23.008Z,24.40
2024-04-15T03:06:23.109Z,24.40
2024-04-15T03:09:20.573Z,24.40
2024-04-15T03:12:16.688Z,24.50
2024-04-15T03:15:12.569Z,24.50
2024-04-15T03:18:08.117Z,24.60
2024-04-15T03:21:13.153Z,24.70
2024-04-15T03:24:08.657Z,24.70
2024-04-15T03:27:04.259Z,24.80
2024-04-15T03:29:59.461Z,24.80
2024-04-15T03:32:54.681Z,24.80
2024-04-15T03:35:49.661Z,24.80
2024-04-15T03:38:44.816Z,24.80
2024-04-15T03:41:40.173Z,24.80
2024-04-15T03:44:35.917Z,24.80
2024-04-15T03:47:32.192Z,24.70
2024-04-15T03:50:27.453Z,24.80
2024-04-15T03:53:23.785Z,24.80
2024-04-15T03:56:18.916Z,24.80
2024-04-15T03:59:14.462Z,24.80
2024-04-15T04:02:10.025Z,24.90
2024-04-15T04:05:07.072Z,24.90
2024-04-15T04:08:02.213Z,25.00
2024-04-15T04:10:57.408Z,25.00
2024-04-15T04:13:52.605Z,25.00
2024-04-15T04:16:48.014Z,25.00
2024-04-15T04:19:43.168Z,25.00
2024-04-15T04:22:38.438Z,25.00
2024-04-15T04:25:33.606Z,25.00
2024-04-15T04:28:28.816Z,25.00
2024-04-15T04:31:23.982Z,25.00
2024-04-15T04:34:19.775Z,25.00
2024-04-15T04:37:17.491Z,24.90
2024-04-15T04:40:13.024Z,24.80
2024-04-15T04:43:08.256Z,24.80
2024-04-15T04:46:11.955Z,24.80
2024-04-15T04:49:07.255Z,24.80
2024-04-15T04:52:02.478Z,24.80
2024-04-15T04:54:57.760Z,24.80
2024-04-15T04:57:52.953Z,24.90
2024-04-15T05:00:48.140Z,24.90
2024-04-15T05:03:53.352Z,24.90
2024-04-15T05:06:48.496Z,24.90
2024-04-15T05:09:44.103Z,24.90
2024-04-15T05:12:39.230Z,24.90
2024-04-15T05:15:34.124Z,24.80
2024-04-15T05:18:29.140Z,24.80
2024-04-15T05:21:24.289Z,24.80
2024-04-15T05:24:19.374Z,24.80
2024-04-15T05:27:14.573Z,24.70
2024-04-15T05:30:10.258Z,24.70
2024-04-15T05:33:05.471Z,24.70
2024-04-15T05:36:00.694Z,24.70
2024-04-15T05:38:56.016Z,24.70
2024-04-15T05:41:51.071Z,24.50
2024-04-15T05:44:49.119Z,24.40
2024-04-15T05:47:44.180Z,24.40
2024-04-15T05:50:39.353Z,24.30
2024-04-15T05:53:34.197Z,24.10
2024-04-15T05:56:29.451Z,24.10
2024-04-15T05:59:24.353Z,24.20
2024-04-15T06:02:19.659Z,24.20
2024-04-15T06:05:15.158Z,24.30
2024-04-15T06:08:11.716Z,24.20
2024-04-15T06:11:07.830Z,24.20
2024-04-15T06:14:05.052Z,24.20
2024-04-15T06:17:00.761Z,24.20
2024-04-15T06:19:58.102Z,24.10
2024-04-15T06:22:53.558Z,24.10
2024-04-15T06:25:54.701Z,24.00
2024-04-15T06:28:49.995Z,24.00
2024-04-15T06:31:45.275Z,23.90
2024-04-15T06:34:40.628Z,23.80
2024-04-15T06:37:36.347Z,23.70
2024-04-15T06:40:33.256Z,23.70
2024-04-15T06:43:28.828Z,23.70
2024-04-15T06:46:25.577Z,23.60
2024-04-15T06:49:21.055Z,23.70
2024-04-15T06:52:16.418Z,23.60
2024-04-15T06:55:11.962Z,23.60
2024-04-15T06:58:08.032Z,23.70
2024-04-15T07:01:03.615Z,23.70
2024-04-15T07:03:59.261Z,23.80
2024-04-15T07:06:55.008Z,23.80
2024-04-15T07:09:51.489Z,23.70
2024-04-15T07:12:48.593Z,23.70
2024-04-15T07:15:44.393Z,23.70
2024-04-15T07:18:40.121Z,23.60
2024-04-15T07:21:35.199Z,23.60
2024-04-15T07:24:30.558Z,23.50
2024-04-15T07:27:25.831Z,23.50
2024-04-15T07:30:21.271Z,23.50
2024-04-15T07:33:16.426Z,23.40
2024-04-15T07:36:11.634Z,23.30
2024-04-15T07:39:07.604Z,23.30
2024-04-15T07:42:02.511Z,23.20
2024-04-15T07:44:57.372Z,23.20
2024-04-15T07:47:52.447Z,23.10
2024-04-15T07:50:47.492Z,23.00
2024-04-15T07:53:42.742Z,23.00
2024-04-15T07:56:41.435Z,22.90
2024-04-15T07:59:37.353Z,22.80
2024-04-15T08:02:33.038Z,22.70
2024-04-15T08:05:28.395Z,22.60
2024-04-15T08:08:23.432Z,22.50
2024-04-15T08:11:18.760Z,22.40
2024-04-15T08:14:14.171Z,22.30
2024-04-15T08:17:09.869Z,22.30
2024-04-15T08:20:06.210Z,22.20
2024-04-15T08:23:01.392Z,22.30
2024-04-15T08:25:57.763Z,22.20
2024-04-15T08:28:52.723Z,22.10
2024-04-15T08:31:49.313Z,22.10
2024-04-15T08:34:45.522Z,22.10
2024-04-15T08:37:40.914Z,22.00
2024-04-15T08:40:39.004Z,22.00
2024-04-15T08:43:35.465Z,21.90
2024-04-15T08:46:32.278Z,21.80
2024-04-15T08:49:27.942Z,21.80
2024-04-15T08:52:24.132Z,21.80
2024-04-15T08:55:19.783Z,21.80
2024-04-15T08:58:16.119Z,21.70
2024-04-15T09:01:13.262Z,21.70
2024-04-15T09:04:08.584Z,21.60
2024-04-15T09:07:04.551Z,21.50
2024-04-15T09:09:59.587Z,21.40
2024-04-15T09:12:54.758Z,21.40
2024-04-15T09:15:54.103Z,21.40
2024-04-15T09:18:49.576Z,21.40
2024-04-15T09:21:44.503Z,21.50
2024-04-15T09:24:41.324Z,21.40
2024-04-15T09:27:36.424Z,21.40
2024-04-15T09:30:32.285Z,21.40
2024-04-15T09:33:29.491Z,21.40
2024-04-15T09:36:24.167Z,21.40
2024-04-15T09:39:20.277Z,21.40
2024-04-15T09:42:19.044Z,21.30
2024-04-15T09:45:15.086Z,21.20
2024-04-15T09:48:19.708Z,21.20
2024-04-15T09:51:23.729Z,21.10
2024-04-15T09:54:26.134Z,21.10
2024-04-15T09:57:33.726Z,21.10
2024-04-15T10:00:29.907Z,21.00
2024-04-15T10:03:27.472Z,21.00
2024-04-15T10:06:40.435Z,20.90
2024-04-15T10:09:39.806Z,20.90
2024-04-15T10:12:35.175Z,20.80
2024-04-15T10:15:31.270Z,20.80
2024-04-15T10:18:26.129Z,20.70
2024-04-15T10:21:22.485Z,20.60
2024-04-15T10:24:18.243Z,20.60
2024-04-15T10:27:14.605Z,20.50
2024-04-15T10:30:21.435Z,20.50
2024-04-15T10:33:22.714Z,20.40
2024-04-15T10:36:17.550Z,20.40
2024-04-15T10:39:18.899Z,20.30
2024-04-15T10:42:15.072Z,20.30
2024-04-15T10:45:10.615Z,20.20
2024-04-15T10:48:05.928Z,20.20
2024-04-15T10:51:00.870Z,20.10
2024-04-15T10:53:56.822Z,20.00
2024-04-15T10:56:51.989Z,20.00
2024-04-15T10:59:47.958Z,19.90
2024-04-15T11:02:54.840Z,19.90
2024-04-15T11:05:49.712Z,19.80
2024-04-15T11:08:44.526Z,19.70
2024-04-15T11:11:40.800Z,19.70
2024-04-15T11:14:35.725Z,19.60
2024-04-15T11:17:31.152Z,19.60
2024-04-15T11:20:27.452Z,19.50
2024-04-15T11:23:22.287Z,19.50
2024-04-15T11:26:18.714Z,19.50
2024-04-15T11:29:15.510Z,19.40
2024-04-15T11:32:11.216Z,19.40
2024-04-15T11:35:09.341Z,19.30
2024-04-15T11:38:05.161Z,19.30
2024-04-15T11:41:00.498Z,19.20
2024-04-15T11:43:56.071Z,19.20
2024-04-15T11:46:51.884Z,19.10
2024-04-15T11:49:47.198Z,19.10
2024-04-15T11:52:42.207Z,19.00
2024-04-15T11:55:37.968Z,18.90
2024-04-15T11:58:34.223Z,18.90
2024-04-15T12:01:31.196Z,18.90
2024-04-15T12:04:27.307Z,18.80
2024-04-15T12:07:23.114Z,18.70
2024-04-15T12:10:18.879Z,18.70
2024-04-15T12:13:14.121Z,18.70
2024-04-15T12:16:09.666Z,18.60
2024-04-15T12:19:05.392Z,18.60
2024-04-15T12:22:00.867Z,18.50
2024-04-15T12:25:05.703Z,18.50
2024-04-15T12:28:04.062Z,18.50
2024-04-15T12:31:00.257Z,18.40
2024-04-15T12:33:55.103Z,18.40
2024-04-15T12:36:50.189Z,18.30
2024-04-15T12:39:49.047Z,18.30
2024-04-15T12:42:45.009Z,18.30
2024-04-15T12:45:40.055Z,18.20
2024-04-15T12:48:34.958Z,18.20
2024-04-15T12:51:29.804Z,18.10
2024-04-15T12:54:24.777Z,18.10
2024-04-15T12:57:20.412Z,18.00
2024-04-15T13:00:17.054Z,18.00
2024-04-15T13:03:12.524Z,18.00
2024-04-15T13:06:10.823Z,18.00
2024-04-15T13:09:06.159Z,17.90
2024-04-15T13:12:01.787Z,17.90
2024-04-15T13:14:56.778Z,17.90
2024-04-15T13:17:52.244Z,17.80
2024-04-15T13:20:47.875Z,17.80
2024-04-15T13:23:42.907Z,17.70
2024-04-15T13:26:37.855Z,17.70
2024-04-15T13:29:33.057Z,17.70
2024-04-15T13:32:28.104Z,17.60
2024-04-15T13:35:23.908Z,17.60
2024-04-15T13:38:19.257Z,17.60
2024-04-15T13:41:14.454Z,17.50
2024-04-15T13:44:10.338Z,17.50
2024-04-15T13:47:06.206Z,17.50
2024-04-15T13:50:01.369Z,17.50
2024-04-15T13:52:56.622Z,17.50
2024-04-15T13:55:53.071Z,17.40
2024-04-15T13:58:48.323Z,17.40
2024-04-15T14:01:43.411Z,17.40
2024-04-15T14:04:39.005Z,17.40
2024-04-15T14:07:34.658Z,17.30
2024-04-15T14:10:30.618Z,17.20
2024-04-15T14:13:26.084Z,17.20
2024-04-15T14:16:21.898Z,17.20
2024-04-15T14:19:17.712Z,17.10
2024-04-15T14:22:13.351Z,17.10
2024-04-15T14:25:09.146Z,17.00
2024-04-15T14:28:04.875Z,17.00
2024-04-15T14:31:00.077Z,16.90
2024-04-15T14:33:55.578Z,16.90
2024-04-15T14:36:51.122Z,17.00
2024-04-15T14:39:46.304Z,16.90
2024-04-15T14:42:41.407Z,16.90
2024-04-15T14:45:36.449Z,16.90
2024-04-15T14:48:31.636Z,16.90
2024-04-15T14:51:27.457Z,16.90
2024-04-15T14:54:22.741Z,16.80
2024-04-15T14:57:19.082Z,16.80
2024-04-15T15:00:18.025Z,16.80
2024-04-15T15:03:17.478Z,16.80
2024-04-15T15:06:13.311Z,16.70
2024-04-15T15:09:08.505Z,16.70
2024-04-15T15:12:04.306Z,16.70
2024-04-15T15:14:59.377Z,16.70
2024-04-15T15:17:55.307Z,16.70
2024-04-15T15:20:50.688Z,16.70
2024-04-15T15:23:46.793Z,16.60
2024-04-15T15:26:44.978Z,16.60
2024-04-15T15:29:41.530Z,16.60
2024-04-15T15:32:36.776Z,16.50
2024-04-15T15:35:32.646Z,16.50
2024-04-15T15:38:29.213Z,16.40
2024-04-15T15:41:24.318Z,16.40
2024-04-15T15:44:19.482Z,16.40
2024-04-15T15:47:16.250Z,16.40
2024-04-15T15:50:11.755Z,16.40
2024-04-15T15:53:07.116Z,16.30
2024-04-15T15:56:02.474Z,16.30
2024-04-15T15:58:57.595Z,16.30
2024-04-15T16:01:52.866Z,16.30
2024-04-15T16:04:48.267Z,16.20
2024-04-15T16:07:43.925Z,16.20
2024-04-15T16:10:39.476Z,16.20
2024-04-15T16:13:37.415Z,16.10
2024-04-15T16:16:32.680Z,16.10
2024-04-15T16:19:27.917Z,16.10
2024-04-15T16:22:23.152Z,16.10
2024-04-15T16:25:19.034Z,16.10
2024-04-15T16:28:15.865Z,16.10
2024-04-15T16:31:11.190Z,16.00
2024-04-15T16:34:06.500Z,16.00
2024-04-15T16:37:01.838Z,15.90
2024-04-15T16:39:57.291Z,15.90
2024-04-15T16:42:52.733Z,15.90
2024-04-15T16:45:47.912Z,15.90
2024-04-15T16:48:43.218Z,15.90
2024-04-15T16:51:38.649Z,15.80
2024-04-15T16:54:33.702Z,15.80
2024-04-15T16:57:28.811Z,15.80
2024-04-15T17:00:24.048Z,15.80
2024-04-15T17:03:19.385Z,15.80
2024-04-15T17:06:14.650Z,15.70
2024-04-15T17:09:09.798Z,15.70
2024-04-15T17:12:05.055Z,15.60
2024-04-15T17:15:00.740Z,15.60
2024-04-15T17:17:56.193Z,15.60
2024-04-15T17:20:51.377Z,15.50
2024-04-15T17:23:46.647Z,15.50
2024-04-15T17:26:42.239Z,15.50
2024-04-15T17:29:38.040Z,15.50
2024-04-15T17:32:33.203Z,15.50
2024-04-15T17:35:28.487Z,15.50
2024-04-15T17:38:23.507Z,15.40
2024-04-15T17:41:18.626Z,15.40
2024-04-15T17:44:14.888Z,15.40
2024-04-15T17:47:10.696Z,15.40
2024-04-15T17:50:06.239Z,15.30
2024-04-15T17:53:01.548Z,15.30
2024-04-15T17:55:56.659Z,15.30
2024-04-15T17:58:51.885Z,15.30
2024-04-15T18:01:47.162Z,15.30
2024-04-15T18:04:43.307Z,15.20
2024-04-15T18:07:38.533Z,15.20
2024-04-15T18:10:33.815Z,15.20
2024-04-15T18:13:28.966Z,15.20
2024-04-15T18:16:24.486Z,15.20
2024-04-15T18:19:19.595Z,15.20
2024-04-15T18:22:14.691Z,15.20
2024-04-15T18:25:09.904Z,15.10
2024-04-15T18:28:05.257Z,15.10
2024-04-15T18:31:00.939Z,15.00
2024-04-15T18:33:55.992Z,15.00
2024-04-15T18:36:51.016Z,15.00
2024-04-15T18:39:46.036Z,15.00
2024-04-15T18:42:41.825Z,14.90
2024-04-15T18:45:36.978Z,14.90
2024-04-15T18:48:32.128Z,14.90
2024-04-15T18:51:27.107Z,14.90
2024-04-15T18:54:22.016Z,14.90
2024-04-15T18:57:17.079Z,14.90
2024-04-15T19:00:12.359Z,14.90
2024-04-15T19:03:08.000Z,14.80
2024-04-15T19:06:03.347Z,14.90
2024-04-15T19:08:58.443Z,14.80
2024-04-15T19:11:53.327Z,14.80
2024-04-15T19:17:46.658Z,14.70
2024-04-15T19:20:41.815Z,14.70
2024-04-15T19:23:36.770Z,14.70
2024-04-15T19:26:31.742Z,14.60
2024-04-15T19:29:26.929Z,14.60
2024-04-15T19:32:22.061Z,14.60
2024-04-15T19:35:18.467Z,14.60
2024-04-15T19:38:13.678Z,14.60
2024-04-15T19:41:08.750Z,14.60
2024-04-15T19:44:03.578Z,14.60
2024-04-15T19:46:58.410Z,14.60
2024-04-15T19:49:53.296Z,14.60
2024-04-15T19:52:48.096Z,14.50
2024-04-15T19:55:43.344Z,14.50
2024-04-15T19:58:38.254Z,14.50
2024-04-15T20:01:33.150Z,14.50
2024-04-15T20:04:28.119Z,14.40
2024-04-15T20:07:23.417Z,14.40
2024-04-15T20:10:18.369Z,14.40
2024-04-15T20:13:13.350Z,14.40
2024-04-15T20:16:11.860Z,14.40
2024-04-15T20:19:08.971Z,14.30
2024-04-15T20:22:03.842Z,14.30
2024-04-15T20:24:58.890Z,14.30
2024-04-15T20:27:53.786Z,14.30
2024-04-15T20:30:50.229Z,14.20
2024-04-15T20:33:45.269Z,14.20
2024-04-15T20:36:40.175Z,14.10
2024-04-15T20:39:35.456Z,14.10
2024-04-15T20:42:30.363Z,14.20
2024-04-15T20:45:25.298Z,14.10
2024-04-15T20:48:20.372Z,14.10
2024-04-15T20:51:15.260Z,14.10
2024-04-15T20:54:10.266Z,14.10
2024-04-15T20:57:06.653Z,14.10
2024-04-15T21:00:01.519Z,14.10
2024-04-15T21:02:59.644Z,14.10
2024-04-15T21:05:55.042Z,14.10
2024-04-15T21:08:49.910Z,14.10
2024-04-15T21:11:45.172Z,14.10
2024-04-15T21:14:40.105Z,14.10
2024-04-15T21:17:35.079Z,14.10
2024-04-15T21:20:30.082Z,14.10
2024-04-15T21:23:25.109Z,14.10
2024-04-15T21:26:20.009Z,14.10
2024-04-15T21:29:15.106Z,14.00
2024-04-15T21:32:10.387Z,14.00
2024-04-15T21:35:06.007Z,14.00
2024-04-15T21:38:01.263Z,14.10
2024-04-15T21:40:56.145Z,14.00
2024-04-15T21:43:51.006Z,14.00
2024-04-15T21:46:46.015Z,14.00
2024-04-15T21:49:40.928Z,14.00
2024-04-15T21:52:35.892Z,14.10
2024-04-15T21:55:30.827Z,14.00
2024-04-15T21:58:25.909Z,14.00
2024-04-15T22:01:20.783Z,14.10
2024-04-15T22:04:15.689Z,14.20
2024-04-15T22:07:10.588Z,14.80
2024-04-15T22:10:05.654Z,15.80
2024-04-15T22:13:00.700Z,16.90
2024-04-15T22:15:55.795Z,18.00
2024-04-15T22:18:51.106Z,19.00
2024-04-15T22:21:45.970Z,19.90
2024-04-15T22:24:40.751Z,20.80
2024-04-15T22:27:35.716Z,21.70
2024-04-15T22:30:30.509Z,22.70
2024-04-15T22:33:26.046Z,23.50
2024-04-15T22:36:20.891Z,23.30
2024-04-15T22:39:16.154Z,22.60
2024-04-15T22:42:11.045Z,22.00
2024-04-15T22:45:08.748Z,21.50
2024-04-15T22:48:05.182Z,21.10
2024-04-15T22:51:00.045Z,20.80
2024-04-15T22:53:55.279Z,21.50
2024-04-15T22:56:50.110Z,23.00
2024-04-15T22:59:45.065Z,24.50
2024-04-15T23:02:40.101Z,25.90
2024-04-15T23:05:35.096Z,27.20
2024-04-15T23:08:29.936Z,28.40
2024-04-15T23:11:24.780Z,29.40
2024-04-15T23:14:19.631Z,30.30
2024-04-15T23:17:14.503Z,31.10
2024-04-15T23:20:10.004Z,31.80
2024-04-15T23:23:04.775Z,32.50
2024-04-15T23:25:59.587Z,33.10
2024-04-15T23:28:54.360Z,33.40
2024-04-15T23:31:49.140Z,33.20
2024-04-15T23:34:44.192Z,31.70
2024-04-15T23:37:40.010Z,30.10
2024-04-15T23:40:35.622Z,28.80
2024-04-15T23:43:32.422Z,27.80
2024-04-15T23:46:27.893Z,26.90
2024-04-15T23:49:23.390Z,26.30
2024-04-15T23:52:18.948Z,25.70
2024-04-15T23:55:14.471Z,24.90
2024-04-15T23:58:11.694Z,24.50
